sensor_id;sensor_type;location;lat;lon;timestamp;P1;durP1;ratioP1;P2;durP2;ratioP2
23728;SDS011;12045;60.214;24.724;2023-04-26T00:02:22;8.30;;;4.53;;
23728;SDS011;12045;60.214;24.724;2023-04-26T00:04:51;7.57;;;4.18;;
23728;SDS011;12045;60.214;24.724;2023-04-26T00:07:22;6.88;;;4.10;;
23728;SDS011;12045;60.214;24.724;2023-04-26T00:09:50;8.00;;;4.20;;
23728;SDS011;12045;60.214;24.724;2023-04-26T00:12:18;8.20;;;4.50;;
23728;SDS011;12045;60.214;24.724;2023-04-26T00:14:46;6.22;;;3.95;;
23728;SDS011;12045;60.214;24.724;2023-04-26T00:17:13;4.80;;;4.03;;
23728;SDS011;12045;60.214;24.724;2023-04-26T00:19:41;5.55;;;4.25;;
23728;SDS011;12045;60.214;24.724;2023-04-26T00:22:09;4.88;;;3.95;;
23728;SDS011;12045;60.214;24.724;2023-04-26T00:24:37;8.57;;;4.45;;
23728;SDS011;12045;60.214;24.724;2023-04-26T00:27:04;6.57;;;4.07;;
23728;SDS011;12045;60.214;24.724;2023-04-26T00:29:35;7.28;;;4.63;;
23728;SDS011;12045;60.214;24.724;2023-04-26T00:32:03;8.77;;;4.43;;
23728;SDS011;12045;60.214;24.724;2023-04-26T00:34:32;7.28;;;4.47;;
23728;SDS011;12045;60.214;24.724;2023-04-26T00:37:04;7.45;;;4.43;;
23728;SDS011;12045;60.214;24.724;2023-04-26T00:39:31;7.65;;;4.65;;
23728;SDS011;12045;60.214;24.724;2023-04-26T00:41:59;6.70;;;4.18;;
23728;SDS011;12045;60.214;24.724;2023-04-26T00:44:28;5.55;;;4.32;;
23728;SDS011;12045;60.214;24.724;2023-04-26T00:46:55;5.43;;;4.40;;
23728;SDS011;12045;60.214;24.724;2023-04-26T00:49:23;5.18;;;4.45;;
23728;SDS011;12045;60.214;24.724;2023-04-26T00:51:52;6.10;;;4.40;;
23728;SDS011;12045;60.214;24.724;2023-04-26T00:54:20;10.32;;;4.55;;
23728;SDS011;12045;60.214;24.724;2023-04-26T00:56:47;7.20;;;4.65;;
23728;SDS011;12045;60.214;24.724;2023-04-26T00:59:20;7.47;;;4.70;;
23728;SDS011;12045;60.214;24.724;2023-04-26T01:01:48;5.78;;;4.50;;
23728;SDS011;12045;60.214;24.724;2023-04-26T01:04:15;7.97;;;4.88;;
23728;SDS011;12045;60.214;24.724;2023-04-26T01:06:44;5.78;;;4.43;;
23728;SDS011;12045;60.214;24.724;2023-04-26T01:09:12;8.82;;;4.55;;
23728;SDS011;12045;60.214;24.724;2023-04-26T01:11:42;5.35;;;4.30;;
23728;SDS011;12045;60.214;24.724;2023-04-26T01:14:10;14.95;;;5.18;;
23728;SDS011;12045;60.214;24.724;2023-04-26T01:16:37;5.03;;;4.53;;
23728;SDS011;12045;60.214;24.724;2023-04-26T01:19:09;6.60;;;4.57;;
23728;SDS011;12045;60.214;24.724;2023-04-26T01:21:38;7.55;;;4.45;;
23728;SDS011;12045;60.214;24.724;2023-04-26T01:24:08;6.28;;;4.90;;
23728;SDS011;12045;60.214;24.724;2023-04-26T01:26:37;5.72;;;4.80;;
23728;SDS011;12045;60.214;24.724;2023-04-26T01:29:14;7.55;;;4.63;;
23728;SDS011;12045;60.214;24.724;2023-04-26T01:31:57;5.45;;;4.53;;
23728;SDS011;12045;60.214;24.724;2023-04-26T01:34:25;6.72;;;4.60;;
23728;SDS011;12045;60.214;24.724;2023-04-26T01:36:52;6.78;;;4.65;;
23728;SDS011;12045;60.214;24.724;2023-04-26T01:39:20;8.02;;;4.78;;
23728;SDS011;12045;60.214;24.724;2023-04-26T01:41:48;5.22;;;4.32;;
23728;SDS011;12045;60.214;24.724;2023-04-26T01:44:15;6.65;;;4.53;;
23728;SDS011;12045;60.214;24.724;2023-04-26T01:46:43;9.90;;;4.90;;
23728;SDS011;12045;60.214;24.724;2023-04-26T01:49:10;8.57;;;4.93;;
23728;SDS011;12045;60.214;24.724;2023-04-26T01:51:38;8.00;;;5.05;;
23728;SDS011;12045;60.214;24.724;2023-04-26T01:54:05;7.10;;;5.00;;
23728;SDS011;12045;60.214;24.724;2023-04-26T01:56:33;6.38;;;4.75;;
23728;SDS011;12045;60.214;24.724;2023-04-26T01:59:01;9.25;;;4.97;;
23728;SDS011;12045;60.214;24.724;2023-04-26T02:01:28;5.60;;;4.80;;
23728;SDS011;12045;60.214;24.724;2023-04-26T02:03:56;7.00;;;4.97;;
23728;SDS011;12045;60.214;24.724;2023-04-26T02:06:23;11.73;;;5.03;;
23728;SDS011;12045;60.214;24.724;2023-04-26T02:08:51;6.55;;;5.05;;
23728;SDS011;12045;60.214;24.724;2023-04-26T02:11:20;11.00;;;4.88;;
23728;SDS011;12045;60.214;24.724;2023-04-26T02:13:48;7.80;;;5.07;;
23728;SDS011;12045;60.214;24.724;2023-04-26T02:16:17;10.63;;;5.55;;
23728;SDS011;12045;60.214;24.724;2023-04-26T02:18:45;13.20;;;5.38;;
23728;SDS011;12045;60.214;24.724;2023-04-26T02:21:15;10.35;;;5.35;;
23728;SDS011;12045;60.214;24.724;2023-04-26T02:23:43;8.30;;;5.30;;
23728;SDS011;12045;60.214;24.724;2023-04-26T02:26:11;7.43;;;5.32;;
23728;SDS011;12045;60.214;24.724;2023-04-26T02:28:39;14.70;;;5.43;;
23728;SDS011;12045;60.214;24.724;2023-04-26T02:31:07;12.13;;;5.38;;
23728;SDS011;12045;60.214;24.724;2023-04-26T02:33:35;10.73;;;5.53;;
23728;SDS011;12045;60.214;24.724;2023-04-26T02:36:03;8.68;;;5.28;;
23728;SDS011;12045;60.214;24.724;2023-04-26T02:38:34;9.05;;;5.28;;
23728;SDS011;12045;60.214;24.724;2023-04-26T02:41:02;7.00;;;5.60;;
23728;SDS011;12045;60.214;24.724;2023-04-26T02:43:30;11.15;;;6.05;;
23728;SDS011;12045;60.214;24.724;2023-04-26T02:45:57;8.07;;;5.85;;
23728;SDS011;12045;60.214;24.724;2023-04-26T02:48:26;9.80;;;5.80;;
23728;SDS011;12045;60.214;24.724;2023-04-26T02:50:54;8.70;;;6.07;;
23728;SDS011;12045;60.214;24.724;2023-04-26T02:53:22;7.78;;;6.10;;
23728;SDS011;12045;60.214;24.724;2023-04-26T02:55:50;10.77;;;5.93;;
23728;SDS011;12045;60.214;24.724;2023-04-26T02:58:17;7.75;;;6.50;;
23728;SDS011;12045;60.214;24.724;2023-04-26T03:00:49;9.00;;;6.63;;
23728;SDS011;12045;60.214;24.724;2023-04-26T03:03:16;9.52;;;6.03;;
23728;SDS011;12045;60.214;24.724;2023-04-26T03:05:44;8.05;;;6.05;;
23728;SDS011;12045;60.214;24.724;2023-04-26T03:08:12;9.57;;;5.80;;
23728;SDS011;12045;60.214;24.724;2023-04-26T03:10:39;10.82;;;6.85;;
23728;SDS011;12045;60.214;24.724;2023-04-26T03:13:07;9.77;;;6.28;;
23728;SDS011;12045;60.214;24.724;2023-04-26T03:15:35;13.23;;;6.88;;
23728;SDS011;12045;60.214;24.724;2023-04-26T03:18:02;9.35;;;6.80;;
23728;SDS011;12045;60.214;24.724;2023-04-26T03:20:30;7.97;;;6.32;;
23728;SDS011;12045;60.214;24.724;2023-04-26T03:22:57;9.05;;;6.85;;
23728;SDS011;12045;60.214;24.724;2023-04-26T03:25:26;16.65;;;7.32;;
23728;SDS011;12045;60.214;24.724;2023-04-26T03:27:54;9.50;;;7.40;;
23728;SDS011;12045;60.214;24.724;2023-04-26T03:30:22;14.90;;;8.18;;
23728;SDS011;12045;60.214;24.724;2023-04-26T03:32:49;13.52;;;8.43;;
23728;SDS011;12045;60.214;24.724;2023-04-26T03:35:18;14.60;;;8.35;;
23728;SDS011;12045;60.214;24.724;2023-04-26T03:37:45;11.80;;;8.98;;
23728;SDS011;12045;60.214;24.724;2023-04-26T03:40:13;15.18;;;8.55;;
23728;SDS011;12045;60.214;24.724;2023-04-26T03:42:40;13.80;;;9.30;;
23728;SDS011;12045;60.214;24.724;2023-04-26T03:45:08;12.73;;;9.80;;
23728;SDS011;12045;60.214;24.724;2023-04-26T03:47:36;14.73;;;10.25;;
23728;SDS011;12045;60.214;24.724;2023-04-26T03:50:04;20.50;;;10.38;;
23728;SDS011;12045;60.214;24.724;2023-04-26T03:52:32;13.65;;;9.98;;
23728;SDS011;12045;60.214;24.724;2023-04-26T03:55:00;15.13;;;10.60;;
23728;SDS011;12045;60.214;24.724;2023-04-26T03:57:27;14.82;;;10.43;;
23728;SDS011;12045;60.214;24.724;2023-04-26T03:59:55;16.77;;;11.40;;
23728;SDS011;12045;60.214;24.724;2023-04-26T04:02:22;17.90;;;10.63;;
23728;SDS011;12045;60.214;24.724;2023-04-26T04:04:50;16.58;;;10.30;;
23728;SDS011;12045;60.214;24.724;2023-04-26T04:07:18;14.07;;;10.15;;
23728;SDS011;12045;60.214;24.724;2023-04-26T04:09:45;15.82;;;10.27;;
23728;SDS011;12045;60.214;24.724;2023-04-26T04:12:13;16.10;;;10.75;;
23728;SDS011;12045;60.214;24.724;2023-04-26T04:14:40;17.10;;;10.20;;
23728;SDS011;12045;60.214;24.724;2023-04-26T04:17:07;18.13;;;10.45;;
23728;SDS011;12045;60.214;24.724;2023-04-26T04:19:35;16.45;;;10.18;;
23728;SDS011;12045;60.214;24.724;2023-04-26T04:22:03;14.63;;;10.20;;
23728;SDS011;12045;60.214;24.724;2023-04-26T04:24:30;17.10;;;10.25;;
23728;SDS011;12045;60.214;24.724;2023-04-26T04:27:00;15.63;;;10.13;;
23728;SDS011;12045;60.214;24.724;2023-04-26T04:29:27;13.82;;;10.10;;
23728;SDS011;12045;60.214;24.724;2023-04-26T04:31:55;16.35;;;9.95;;
23728;SDS011;12045;60.214;24.724;2023-04-26T04:34:22;13.38;;;9.95;;
23728;SDS011;12045;60.214;24.724;2023-04-26T04:36:50;15.95;;;10.18;;
23728;SDS011;12045;60.214;24.724;2023-04-26T04:39:17;15.60;;;9.45;;
23728;SDS011;12045;60.214;24.724;2023-04-26T04:41:45;16.33;;;9.98;;
23728;SDS011;12045;60.214;24.724;2023-04-26T04:44:16;12.88;;;9.35;;
23728;SDS011;12045;60.214;24.724;2023-04-26T04:46:43;12.77;;;9.05;;
23728;SDS011;12045;60.214;24.724;2023-04-26T04:49:11;11.80;;;8.82;;
23728;SDS011;12045;60.214;24.724;2023-04-26T04:51:39;15.75;;;9.27;;
23728;SDS011;12045;60.214;24.724;2023-04-26T04:54:11;12.95;;;9.48;;
23728;SDS011;12045;60.214;24.724;2023-04-26T04:56:39;14.68;;;9.75;;
23728;SDS011;12045;60.214;24.724;2023-04-26T04:59:08;17.27;;;9.80;;
23728;SDS011;12045;60.214;24.724;2023-04-26T05:01:38;12.52;;;8.70;;
23728;SDS011;12045;60.214;24.724;2023-04-26T05:04:05;11.70;;;8.52;;
23728;SDS011;12045;60.214;24.724;2023-04-26T05:06:34;11.95;;;8.43;;
23728;SDS011;12045;60.214;24.724;2023-04-26T05:09:03;11.40;;;8.32;;
23728;SDS011;12045;60.214;24.724;2023-04-26T05:11:34;12.02;;;8.55;;
23728;SDS011;12045;60.214;24.724;2023-04-26T05:14:03;12.95;;;8.35;;
23728;SDS011;12045;60.214;24.724;2023-04-26T05:16:31;13.57;;;8.02;;
23728;SDS011;12045;60.214;24.724;2023-04-26T05:18:59;12.43;;;7.82;;
23728;SDS011;12045;60.214;24.724;2023-04-26T05:21:26;13.63;;;8.27;;
23728;SDS011;12045;60.214;24.724;2023-04-26T05:23:54;15.05;;;8.70;;
23728;SDS011;12045;60.214;24.724;2023-04-26T05:26:22;16.80;;;8.20;;
23728;SDS011;12045;60.214;24.724;2023-04-26T05:28:51;13.32;;;7.95;;
23728;SDS011;12045;60.214;24.724;2023-04-26T05:31:19;16.20;;;7.97;;
23728;SDS011;12045;60.214;24.724;2023-04-26T05:33:47;13.32;;;7.50;;
23728;SDS011;12045;60.214;24.724;2023-04-26T05:36:15;15.25;;;8.23;;
23728;SDS011;12045;60.214;24.724;2023-04-26T05:38:43;19.05;;;8.68;;
23728;SDS011;12045;60.214;24.724;2023-04-26T05:41:10;17.60;;;8.25;;
23728;SDS011;12045;60.214;24.724;2023-04-26T05:46:25;13.70;;;7.43;;
23728;SDS011;12045;60.214;24.724;2023-04-26T05:48:56;13.48;;;7.03;;
23728;SDS011;12045;60.214;24.724;2023-04-26T05:51:24;12.32;;;7.45;;
23728;SDS011;12045;60.214;24.724;2023-04-26T05:53:53;15.35;;;7.10;;
23728;SDS011;12045;60.214;24.724;2023-04-26T05:56:21;16.58;;;8.20;;
23728;SDS011;12045;60.214;24.724;2023-04-26T05:58:50;14.60;;;7.47;;
23728;SDS011;12045;60.214;24.724;2023-04-26T06:01:18;17.13;;;8.43;;
23728;SDS011;12045;60.214;24.724;2023-04-26T06:03:48;19.17;;;7.97;;
23728;SDS011;12045;60.214;24.724;2023-04-26T06:06:21;14.20;;;7.90;;
23728;SDS011;12045;60.214;24.724;2023-04-26T06:09:01;13.15;;;7.22;;
23728;SDS011;12045;60.214;24.724;2023-04-26T06:11:30;14.35;;;7.35;;
23728;SDS011;12045;60.214;24.724;2023-04-26T06:13:59;15.10;;;7.80;;
23728;SDS011;12045;60.214;24.724;2023-04-26T06:16:27;19.95;;;8.20;;
23728;SDS011;12045;60.214;24.724;2023-04-26T06:19:02;14.73;;;8.25;;
23728;SDS011;12045;60.214;24.724;2023-04-26T06:21:32;15.18;;;8.13;;
23728;SDS011;12045;60.214;24.724;2023-04-26T06:24:03;17.75;;;8.38;;
23728;SDS011;12045;60.214;24.724;2023-04-26T06:26:34;18.20;;;8.32;;
23728;SDS011;12045;60.214;24.724;2023-04-26T06:29:02;14.45;;;8.00;;
23728;SDS011;12045;60.214;24.724;2023-04-26T06:31:30;16.58;;;8.15;;
23728;SDS011;12045;60.214;24.724;2023-04-26T06:34:01;12.13;;;7.60;;
23728;SDS011;12045;60.214;24.724;2023-04-26T06:36:34;11.88;;;6.85;;
23728;SDS011;12045;60.214;24.724;2023-04-26T06:39:02;15.32;;;8.00;;
23728;SDS011;12045;60.214;24.724;2023-04-26T06:41:33;13.65;;;8.07;;
23728;SDS011;12045;60.214;24.724;2023-04-26T06:44:17;15.15;;;7.75;;
23728;SDS011;12045;60.214;24.724;2023-04-26T06:46:45;13.82;;;7.40;;
23728;SDS011;12045;60.214;24.724;2023-04-26T06:49:13;11.88;;;6.53;;
23728;SDS011;12045;60.214;24.724;2023-04-26T06:51:42;12.88;;;8.02;;
23728;SDS011;12045;60.214;24.724;2023-04-26T06:54:14;12.25;;;7.45;;
23728;SDS011;12045;60.214;24.724;2023-04-26T06:56:42;12.15;;;5.50;;
23728;SDS011;12045;60.214;24.724;2023-04-26T06:59:11;12.30;;;7.35;;
23728;SDS011;12045;60.214;24.724;2023-04-26T07:01:41;14.27;;;7.93;;
23728;SDS011;12045;60.214;24.724;2023-04-26T07:04:09;12.13;;;6.97;;
23728;SDS011;12045;60.214;24.724;2023-04-26T07:06:43;12.35;;;7.22;;
23728;SDS011;12045;60.214;24.724;2023-04-26T07:09:16;10.70;;;6.78;;
23728;SDS011;12045;60.214;24.724;2023-04-26T07:11:44;10.70;;;6.00;;
23728;SDS011;12045;60.214;24.724;2023-04-26T07:14:13;8.68;;;5.43;;
23728;SDS011;12045;60.214;24.724;2023-04-26T07:16:43;8.20;;;5.75;;
23728;SDS011;12045;60.214;24.724;2023-04-26T07:19:13;10.20;;;5.70;;
23728;SDS011;12045;60.214;24.724;2023-04-26T07:21:41;9.43;;;6.20;;
23728;SDS011;12045;60.214;24.724;2023-04-26T07:24:09;7.78;;;5.82;;
23728;SDS011;12045;60.214;24.724;2023-04-26T07:26:40;11.15;;;6.38;;
23728;SDS011;12045;60.214;24.724;2023-04-26T07:29:08;10.60;;;5.65;;
23728;SDS011;12045;60.214;24.724;2023-04-26T07:31:37;9.07;;;5.22;;
23728;SDS011;12045;60.214;24.724;2023-04-26T07:34:04;8.13;;;5.55;;
23728;SDS011;12045;60.214;24.724;2023-04-26T07:39:37;8.13;;;5.60;;
23728;SDS011;12045;60.214;24.724;2023-04-26T07:42:05;8.75;;;5.45;;
23728;SDS011;12045;60.214;24.724;2023-04-26T07:44:32;7.30;;;4.93;;
23728;SDS011;12045;60.214;24.724;2023-04-26T07:47:00;7.32;;;4.50;;
23728;SDS011;12045;60.214;24.724;2023-04-26T07:49:29;6.35;;;4.18;;
23728;SDS011;12045;60.214;24.724;2023-04-26T07:51:57;6.20;;;4.38;;
23728;SDS011;12045;60.214;24.724;2023-04-26T07:54:28;5.40;;;4.18;;
23728;SDS011;12045;60.214;24.724;2023-04-26T07:56:56;6.00;;;4.45;;
23728;SDS011;12045;60.214;24.724;2023-04-26T07:59:24;6.47;;;4.05;;
23728;SDS011;12045;60.214;24.724;2023-04-26T08:01:52;7.00;;;3.67;;
23728;SDS011;12045;60.214;24.724;2023-04-26T08:04:28;9.20;;;3.97;;
23728;SDS011;12045;60.214;24.724;2023-04-26T08:07:01;5.43;;;3.78;;
23728;SDS011;12045;60.214;24.724;2023-04-26T08:09:30;7.55;;;4.07;;
23728;SDS011;12045;60.214;24.724;2023-04-26T08:11:58;6.88;;;3.78;;
23728;SDS011;12045;60.214;24.724;2023-04-26T08:14:30;6.18;;;3.15;;
23728;SDS011;12045;60.214;24.724;2023-04-26T08:16:58;5.25;;;2.90;;
23728;SDS011;12045;60.214;24.724;2023-04-26T08:23:49;5.80;;;2.80;;
23728;SDS011;12045;60.214;24.724;2023-04-26T08:26:19;4.82;;;3.03;;
23728;SDS011;12045;60.214;24.724;2023-04-26T08:28:49;6.97;;;3.10;;
23728;SDS011;12045;60.214;24.724;2023-04-26T08:31:17;4.20;;;2.70;;
23728;SDS011;12045;60.214;24.724;2023-04-26T08:33:45;4.00;;;2.85;;
23728;SDS011;12045;60.214;24.724;2023-04-26T08:36:13;4.60;;;2.90;;
23728;SDS011;12045;60.214;24.724;2023-04-26T08:38:41;3.97;;;2.80;;
23728;SDS011;12045;60.214;24.724;2023-04-26T08:41:10;4.82;;;2.58;;
23728;SDS011;12045;60.214;24.724;2023-04-26T08:43:42;4.90;;;2.78;;
23728;SDS011;12045;60.214;24.724;2023-04-26T08:46:19;8.73;;;2.90;;
23728;SDS011;12045;60.214;24.724;2023-04-26T08:48:48;4.43;;;2.70;;
23728;SDS011;12045;60.214;24.724;2023-04-26T08:51:32;3.78;;;2.60;;
23728;SDS011;12045;60.214;24.724;2023-04-26T08:54:08;4.78;;;2.78;;
23728;SDS011;12045;60.214;24.724;2023-04-26T08:56:37;4.97;;;3.15;;
23728;SDS011;12045;60.214;24.724;2023-04-26T08:59:07;5.35;;;2.88;;
23728;SDS011;12045;60.214;24.724;2023-04-26T09:01:37;6.78;;;2.80;;
23728;SDS011;12045;60.214;24.724;2023-04-26T09:04:06;3.47;;;2.67;;
23728;SDS011;12045;60.214;24.724;2023-04-26T09:06:35;4.38;;;2.60;;
23728;SDS011;12045;60.214;24.724;2023-04-26T09:09:05;3.28;;;2.03;;
23728;SDS011;12045;60.214;24.724;2023-04-26T09:11:56;2.60;;;2.30;;
23728;SDS011;12045;60.214;24.724;2023-04-26T09:14:26;3.83;;;2.15;;
23728;SDS011;12045;60.214;24.724;2023-04-26T09:17:31;5.63;;;2.20;;
23728;SDS011;12045;60.214;24.724;2023-04-26T09:20:00;8.25;;;1.90;;
23728;SDS011;12045;60.214;24.724;2023-04-26T09:22:43;4.60;;;1.77;;
23728;SDS011;12045;60.214;24.724;2023-04-26T09:25:15;4.07;;;1.60;;
23728;SDS011;12045;60.214;24.724;2023-04-26T09:27:44;2.08;;;1.67;;
23728;SDS011;12045;60.214;24.724;2023-04-26T09:30:16;3.72;;;1.85;;
23728;SDS011;12045;60.214;24.724;2023-04-26T09:35:36;3.30;;;1.77;;
23728;SDS011;12045;60.214;24.724;2023-04-26T09:38:06;3.53;;;1.63;;
23728;SDS011;12045;60.214;24.724;2023-04-26T09:40:44;3.28;;;1.85;;
23728;SDS011;12045;60.214;24.724;2023-04-26T09:48:14;5.10;;;1.40;;
23728;SDS011;12045;60.214;24.724;2023-04-26T09:50:49;2.33;;;1.40;;
23728;SDS011;12045;60.214;24.724;2023-04-26T09:53:34;4.60;;;1.50;;
23728;SDS011;12045;60.214;24.724;2023-04-26T09:56:11;5.25;;;1.50;;
23728;SDS011;12045;60.214;24.724;2023-04-26T10:01:15;2.78;;;1.23;;
23728;SDS011;12045;60.214;24.724;2023-04-26T10:03:48;2.08;;;1.40;;
23728;SDS011;12045;60.214;24.724;2023-04-26T10:06:16;2.47;;;1.52;;
23728;SDS011;12045;60.214;24.724;2023-04-26T10:08:44;3.40;;;1.60;;
23728;SDS011;12045;60.214;24.724;2023-04-26T10:11:12;4.80;;;1.50;;
23728;SDS011;12045;60.214;24.724;2023-04-26T10:13:41;3.38;;;1.60;;
23728;SDS011;12045;60.214;24.724;2023-04-26T10:16:10;4.63;;;1.45;;
23728;SDS011;12045;60.214;24.724;2023-04-26T10:18:39;3.70;;;1.40;;
23728;SDS011;12045;60.214;24.724;2023-04-26T10:21:20;2.55;;;1.42;;
23728;SDS011;12045;60.214;24.724;2023-04-26T10:23:55;5.57;;;1.67;;
23728;SDS011;12045;60.214;24.724;2023-04-26T10:29:21;4.95;;;1.60;;
23728;SDS011;12045;60.214;24.724;2023-04-26T10:32:03;6.68;;;1.92;;
23728;SDS011;12045;60.214;24.724;2023-04-26T10:34:36;4.32;;;1.73;;
23728;SDS011;12045;60.214;24.724;2023-04-26T10:37:07;4.60;;;1.80;;
23728;SDS011;12045;60.214;24.724;2023-04-26T10:39:45;4.25;;;1.77;;
23728;SDS011;12045;60.214;24.724;2023-04-26T10:42:31;5.15;;;1.50;;
23728;SDS011;12045;60.214;24.724;2023-04-26T10:45:00;2.53;;;1.63;;
23728;SDS011;12045;60.214;24.724;2023-04-26T10:53:33;3.05;;;1.75;;
23728;SDS011;12045;60.214;24.724;2023-04-26T11:01:40;4.55;;;1.70;;
23728;SDS011;12045;60.214;24.724;2023-04-26T11:04:09;3.67;;;1.50;;
23728;SDS011;12045;60.214;24.724;2023-04-26T11:06:47;3.58;;;1.80;;
23728;SDS011;12045;60.214;24.724;2023-04-26T11:09:32;5.32;;;1.80;;
23728;SDS011;12045;60.214;24.724;2023-04-26T11:12:00;3.28;;;1.75;;
23728;SDS011;12045;60.214;24.724;2023-04-26T11:14:30;2.25;;;1.75;;
23728;SDS011;12045;60.214;24.724;2023-04-26T11:17:01;3.17;;;1.65;;
23728;SDS011;12045;60.214;24.724;2023-04-26T11:19:32;3.92;;;1.67;;
23728;SDS011;12045;60.214;24.724;2023-04-26T11:22:00;2.65;;;1.60;;
23728;SDS011;12045;60.214;24.724;2023-04-26T11:24:32;5.30;;;1.70;;
23728;SDS011;12045;60.214;24.724;2023-04-26T11:27:09;4.72;;;1.55;;
23728;SDS011;12045;60.214;24.724;2023-04-26T11:29:39;2.60;;;1.67;;
23728;SDS011;12045;60.214;24.724;2023-04-26T11:32:06;1.80;;;1.50;;
23728;SDS011;12045;60.214;24.724;2023-04-26T11:34:38;3.50;;;1.40;;
23728;SDS011;12045;60.214;24.724;2023-04-26T11:37:09;4.63;;;1.48;;
23728;SDS011;12045;60.214;24.724;2023-04-26T11:39:37;3.45;;;1.48;;
23728;SDS011;12045;60.214;24.724;2023-04-26T11:42:10;4.60;;;1.48;;
23728;SDS011;12045;60.214;24.724;2023-04-26T11:44:39;2.15;;;1.55;;
23728;SDS011;12045;60.214;24.724;2023-04-26T11:47:07;3.08;;;1.40;;
23728;SDS011;12045;60.214;24.724;2023-04-26T11:49:36;2.65;;;1.30;;
23728;SDS011;12045;60.214;24.724;2023-04-26T11:52:05;2.88;;;1.23;;
23728;SDS011;12045;60.214;24.724;2023-04-26T11:54:35;4.47;;;1.60;;
23728;SDS011;12045;60.214;24.724;2023-04-26T11:57:14;6.07;;;1.95;;
23728;SDS011;12045;60.214;24.724;2023-04-26T11:59:43;4.13;;;1.63;;
23728;SDS011;12045;60.214;24.724;2023-04-26T12:02:11;3.35;;;1.70;;
23728;SDS011;12045;60.214;24.724;2023-04-26T12:04:41;2.97;;;1.30;;
23728;SDS011;12045;60.214;24.724;2023-04-26T12:07:10;3.13;;;1.30;;
23728;SDS011;12045;60.214;24.724;2023-04-26T12:09:39;2.13;;;1.30;;
23728;SDS011;12045;60.214;24.724;2023-04-26T12:12:10;3.17;;;1.55;;
23728;SDS011;12045;60.214;24.724;2023-04-26T12:14:38;1.70;;;1.30;;
23728;SDS011;12045;60.214;24.724;2023-04-26T12:17:06;5.13;;;1.45;;
23728;SDS011;12045;60.214;24.724;2023-04-26T12:19:35;4.25;;;1.77;;
23728;SDS011;12045;60.214;24.724;2023-04-26T12:22:03;3.30;;;1.50;;
23728;SDS011;12045;60.214;24.724;2023-04-26T12:24:31;2.70;;;1.80;;
23728;SDS011;12045;60.214;24.724;2023-04-26T12:27:02;2.00;;;1.40;;
23728;SDS011;12045;60.214;24.724;2023-04-26T12:29:33;4.63;;;1.63;;
23728;SDS011;12045;60.214;24.724;2023-04-26T12:32:01;3.22;;;1.65;;
23728;SDS011;12045;60.214;24.724;2023-04-26T12:34:30;2.65;;;1.73;;
23728;SDS011;12045;60.214;24.724;2023-04-26T12:36:58;4.05;;;1.67;;
23728;SDS011;12045;60.214;24.724;2023-04-26T12:39:26;2.50;;;1.63;;
23728;SDS011;12045;60.214;24.724;2023-04-26T12:41:53;3.58;;;1.67;;
23728;SDS011;12045;60.214;24.724;2023-04-26T12:44:22;3.45;;;1.70;;
23728;SDS011;12045;60.214;24.724;2023-04-26T12:46:52;3.50;;;1.75;;
23728;SDS011;12045;60.214;24.724;2023-04-26T12:49:20;5.90;;;1.80;;
23728;SDS011;12045;60.214;24.724;2023-04-26T12:51:47;5.15;;;1.92;;
23728;SDS011;12045;60.214;24.724;2023-04-26T12:54:15;2.35;;;1.88;;
23728;SDS011;12045;60.214;24.724;2023-04-26T12:56:42;4.03;;;1.80;;
23728;SDS011;12045;60.214;24.724;2023-04-26T12:59:10;3.22;;;2.00;;
23728;SDS011;12045;60.214;24.724;2023-04-26T13:01:38;4.47;;;2.20;;
23728;SDS011;12045;60.214;24.724;2023-04-26T13:04:07;3.80;;;2.28;;
23728;SDS011;12045;60.214;24.724;2023-04-26T13:06:36;5.63;;;1.92;;
23728;SDS011;12045;60.214;24.724;2023-04-26T13:09:03;5.75;;;2.10;;
23728;SDS011;12045;60.214;24.724;2023-04-26T13:11:33;4.00;;;1.90;;
23728;SDS011;12045;60.214;24.724;2023-04-26T13:14:01;4.10;;;1.80;;
23728;SDS011;12045;60.214;24.724;2023-04-26T13:16:28;4.07;;;1.90;;
23728;SDS011;12045;60.214;24.724;2023-04-26T13:18:56;5.10;;;2.10;;
23728;SDS011;12045;60.214;24.724;2023-04-26T13:21:23;4.65;;;1.80;;
23728;SDS011;12045;60.214;24.724;2023-04-26T13:23:51;7.07;;;2.10;;
23728;SDS011;12045;60.214;24.724;2023-04-26T13:26:18;4.43;;;2.03;;
23728;SDS011;12045;60.214;24.724;2023-04-26T13:28:46;4.47;;;1.90;;
23728;SDS011;12045;60.214;24.724;2023-04-26T13:31:14;6.95;;;2.25;;
23728;SDS011;12045;60.214;24.724;2023-04-26T13:33:43;5.47;;;2.20;;
23728;SDS011;12045;60.214;24.724;2023-04-26T13:36:13;5.72;;;2.05;;
23728;SDS011;12045;60.214;24.724;2023-04-26T13:38:41;6.30;;;2.00;;
23728;SDS011;12045;60.214;24.724;2023-04-26T13:41:09;3.35;;;1.83;;
23728;SDS011;12045;60.214;24.724;2023-04-26T13:43:37;3.47;;;2.03;;
23728;SDS011;12045;60.214;24.724;2023-04-26T13:46:05;3.78;;;2.10;;
23728;SDS011;12045;60.214;24.724;2023-04-26T13:48:33;10.10;;;2.03;;
23728;SDS011;12045;60.214;24.724;2023-04-26T13:51:00;6.50;;;1.80;;
23728;SDS011;12045;60.214;24.724;2023-04-26T13:53:30;2.83;;;1.88;;
23728;SDS011;12045;60.214;24.724;2023-04-26T13:55:58;4.28;;;2.00;;
23728;SDS011;12045;60.214;24.724;2023-04-26T13:58:25;3.28;;;2.10;;
23728;SDS011;12045;60.214;24.724;2023-04-26T14:00:52;7.50;;;1.92;;
23728;SDS011;12045;60.214;24.724;2023-04-26T14:03:20;6.28;;;2.30;;
23728;SDS011;12045;60.214;24.724;2023-04-26T14:05:48;3.95;;;2.10;;
23728;SDS011;12045;60.214;24.724;2023-04-26T14:08:15;6.00;;;2.00;;
23728;SDS011;12045;60.214;24.724;2023-04-26T14:10:43;4.47;;;2.20;;
23728;SDS011;12045;60.214;24.724;2023-04-26T14:13:11;4.38;;;2.17;;
23728;SDS011;12045;60.214;24.724;2023-04-26T14:15:39;3.38;;;1.90;;
23728;SDS011;12045;60.214;24.724;2023-04-26T14:18:07;5.28;;;2.25;;
23728;SDS011;12045;60.214;24.724;2023-04-26T14:20:34;3.53;;;1.98;;
23728;SDS011;12045;60.214;24.724;2023-04-26T14:23:02;6.00;;;2.13;;
23728;SDS011;12045;60.214;24.724;2023-04-26T14:25:30;5.85;;;2.53;;
23728;SDS011;12045;60.214;24.724;2023-04-26T14:27:57;7.63;;;2.33;;
23728;SDS011;12045;60.214;24.724;2023-04-26T14:30:24;6.70;;;2.33;;
23728;SDS011;12045;60.214;24.724;2023-04-26T14:32:53;7.70;;;2.60;;
23728;SDS011;12045;60.214;24.724;2023-04-26T14:35:20;6.13;;;2.30;;
23728;SDS011;12045;60.214;24.724;2023-04-26T14:37:48;16.98;;;3.67;;
23728;SDS011;12045;60.214;24.724;2023-04-26T14:40:16;5.43;;;2.47;;
23728;SDS011;12045;60.214;24.724;2023-04-26T14:42:43;5.50;;;2.15;;
23728;SDS011;12045;60.214;24.724;2023-04-26T14:45:13;5.88;;;2.20;;
23728;SDS011;12045;60.214;24.724;2023-04-26T14:47:41;5.10;;;2.15;;
23728;SDS011;12045;60.214;24.724;2023-04-26T14:50:08;9.75;;;2.40;;
23728;SDS011;12045;60.214;24.724;2023-04-26T14:52:36;7.15;;;2.67;;
23728;SDS011;12045;60.214;24.724;2023-04-26T14:55:04;9.10;;;2.60;;
23728;SDS011;12045;60.214;24.724;2023-04-26T14:57:32;14.68;;;2.47;;
23728;SDS011;12045;60.214;24.724;2023-04-26T15:00:00;5.22;;;2.30;;
23728;SDS011;12045;60.214;24.724;2023-04-26T15:02:33;7.25;;;2.78;;
23728;SDS011;12045;60.214;24.724;2023-04-26T15:05:00;5.22;;;2.60;;
23728;SDS011;12045;60.214;24.724;2023-04-26T15:07:30;5.30;;;2.28;;
23728;SDS011;12045;60.214;24.724;2023-04-26T15:09:58;7.28;;;2.45;;
23728;SDS011;12045;60.214;24.724;2023-04-26T15:12:27;5.35;;;2.60;;
23728;SDS011;12045;60.214;24.724;2023-04-26T15:14:55;6.32;;;2.47;;
23728;SDS011;12045;60.214;24.724;2023-04-26T15:17:22;6.50;;;2.90;;
23728;SDS011;12045;60.214;24.724;2023-04-26T15:19:50;7.38;;;2.33;;